sensor_id;sensor_type;location;lat;lon;timestamp;P1;durP1;ratioP1;P2;durP2;ratioP2
18021;SDS011;9136;48.822;7.966;2023-02-21T00:01:52;22.53;;;21.43;;
18021;SDS011;9136;48.822;7.966;2023-02-21T00:04:57;22.50;;;21.50;;
18021;SDS011;9136;48.822;7.966;2023-02-21T00:08:02;23.57;;;22.53;;
18021;SDS011;9136;48.822;7.966;2023-02-21T00:11:07;20.57;;;19.67;;
18021;SDS011;9136;48.822;7.966;2023-02-21T00:14:13;22.70;;;21.70;;
18021;SDS011;9136;48.822;7.966;2023-02-21T00:17:20;20.87;;;19.87;;
18021;SDS011;9136;48.822;7.966;2023-02-21T00:20:26;21.67;;;20.67;;
18021;SDS011;9136;48.822;7.966;2023-02-21T00:23:32;19.93;;;19.03;;
18021;SDS011;9136;48.822;7.966;2023-02-21T00:26:38;22.37;;;21.27;;
18021;SDS011;9136;48.822;7.966;2023-02-21T00:29:43;20.17;;;19.23;;
18021;SDS011;9136;48.822;7.966;2023-02-21T00:32:49;23.07;;;21.97;;
18021;SDS011;9136;48.822;7.966;2023-02-21T00:35:54;19.50;;;18.23;;
18021;SDS011;9136;48.822;7.966;2023-02-21T00:38:59;22.30;;;21.20;;
18021;SDS011;9136;48.822;7.966;2023-02-21T00:42:04;20.70;;;19.80;;
18021;SDS011;9136;48.822;7.966;2023-02-21T00:45:10;21.87;;;20.23;;
18021;SDS011;9136;48.822;7.966;2023-02-21T00:48:20;23.30;;;22.13;;
18021;SDS011;9136;48.822;7.966;2023-02-21T00:51:26;24.87;;;23.67;;
18021;SDS011;9136;48.822;7.966;2023-02-21T00:54:31;21.13;;;20.23;;
18021;SDS011;9136;48.822;7.966;2023-02-21T00:57:36;21.93;;;20.93;;
18021;SDS011;9136;48.822;7.966;2023-02-21T01:00:41;19.60;;;18.70;;
18021;SDS011;9136;48.822;7.966;2023-02-21T01:03:48;20.73;;;19.73;;
18021;SDS011;9136;48.822;7.966;2023-02-21T01:06:53;22.17;;;21.13;;
18021;SDS011;9136;48.822;7.966;2023-02-21T01:09:58;21.73;;;20.77;;
18021;SDS011;9136;48.822;7.966;2023-02-21T01:13:04;22.87;;;21.87;;
18021;SDS011;9136;48.822;7.966;2023-02-21T01:16:09;22.37;;;21.30;;
18021;SDS011;9136;48.822;7.966;2023-02-21T01:19:16;20.13;;;19.13;;
18021;SDS011;9136;48.822;7.966;2023-02-21T01:22:21;21.73;;;20.63;;
18021;SDS011;9136;48.822;7.966;2023-02-21T01:25:26;19.97;;;19.00;;
18021;SDS011;9136;48.822;7.966;2023-02-21T01:28:31;20.13;;;19.23;;
18021;SDS011;9136;48.822;7.966;2023-02-21T01:31:37;20.40;;;19.50;;
18021;SDS011;9136;48.822;7.966;2023-02-21T01:34:43;21.87;;;20.87;;
18021;SDS011;9136;48.822;7.966;2023-02-21T01:37:49;21.30;;;20.37;;
18021;SDS011;9136;48.822;7.966;2023-02-21T01:40:54;22.07;;;21.07;;
18021;SDS011;9136;48.822;7.966;2023-02-21T01:44:00;23.20;;;21.73;;
18021;SDS011;9136;48.822;7.966;2023-02-21T01:47:08;24.30;;;23.10;;
18021;SDS011;9136;48.822;7.966;2023-02-21T01:50:17;22.67;;;21.67;;
18021;SDS011;9136;48.822;7.966;2023-02-21T01:53:25;23.27;;;22.17;;
18021;SDS011;9136;48.822;7.966;2023-02-21T01:56:31;24.50;;;23.40;;
18021;SDS011;9136;48.822;7.966;2023-02-21T01:59:37;21.20;;;20.20;;
18021;SDS011;9136;48.822;7.966;2023-02-21T02:02:45;22.53;;;21.43;;
18021;SDS011;9136;48.822;7.966;2023-02-21T02:05:58;27.03;;;25.73;;
18021;SDS011;9136;48.822;7.966;2023-02-21T02:09:14;23.03;;;21.93;;
18021;SDS011;9136;48.822;7.966;2023-02-21T02:12:34;20.90;;;20.00;;
18021;SDS011;9136;48.822;7.966;2023-02-21T02:15:46;23.47;;;22.27;;
18021;SDS011;9136;48.822;7.966;2023-02-21T02:18:47;20.07;;;19.13;;
18021;SDS011;9136;48.822;7.966;2023-02-21T02:25:23;21.33;;;20.30;;
18021;SDS011;9136;48.822;7.966;2023-02-21T02:28:32;22.13;;;20.97;;
18021;SDS011;9136;48.822;7.966;2023-02-21T02:31:39;22.33;;;21.30;;
18021;SDS011;9136;48.822;7.966;2023-02-21T02:34:46;21.43;;;20.40;;
18021;SDS011;9136;48.822;7.966;2023-02-21T02:37:41;25.37;;;24.27;;
18021;SDS011;9136;48.822;7.966;2023-02-21T02:40:39;24.00;;;22.80;;
18021;SDS011;9136;48.822;7.966;2023-02-21T02:43:34;22.97;;;21.37;;
18021;SDS011;9136;48.822;7.966;2023-02-21T02:46:29;17.80;;;17.00;;
18021;SDS011;9136;48.822;7.966;2023-02-21T02:49:20;20.77;;;19.77;;
18021;SDS011;9136;48.822;7.966;2023-02-21T02:52:12;25.27;;;24.07;;
18021;SDS011;9136;48.822;7.966;2023-02-21T02:55:00;23.87;;;22.77;;
18021;SDS011;9136;48.822;7.966;2023-02-21T02:57:50;22.73;;;21.67;;
18021;SDS011;9136;48.822;7.966;2023-02-21T03:00:39;20.50;;;19.60;;
18021;SDS011;9136;48.822;7.966;2023-02-21T03:03:38;20.13;;;19.13;;
18021;SDS011;9136;48.822;7.966;2023-02-21T03:06:40;22.30;;;21.20;;
18021;SDS011;9136;48.822;7.966;2023-02-21T03:09:37;20.07;;;19.07;;
18021;SDS011;9136;48.822;7.966;2023-02-21T03:12:36;22.93;;;21.63;;
18021;SDS011;9136;48.822;7.966;2023-02-21T03:15:31;22.67;;;21.67;;
18021;SDS011;9136;48.822;7.966;2023-02-21T03:18:26;19.97;;;18.97;;
18021;SDS011;9136;48.822;7.966;2023-02-21T03:21:17;21.37;;;20.37;;
18021;SDS011;9136;48.822;7.966;2023-02-21T03:24:09;18.40;;;17.53;;
18021;SDS011;9136;48.822;7.966;2023-02-21T03:27:03;21.90;;;20.57;;
18021;SDS011;9136;48.822;7.966;2023-02-21T03:29:53;22.27;;;21.27;;
18021;SDS011;9136;48.822;7.966;2023-02-21T03:32:44;20.87;;;19.90;;
18021;SDS011;9136;48.822;7.966;2023-02-21T03:35:36;21.17;;;19.73;;
18021;SDS011;9136;48.822;7.966;2023-02-21T03:38:26;25.20;;;24.03;;
18021;SDS011;9136;48.822;7.966;2023-02-21T03:41:14;17.50;;;16.70;;
18021;SDS011;9136;48.822;7.966;2023-02-21T03:44:04;20.67;;;19.77;;
18021;SDS011;9136;48.822;7.966;2023-02-21T03:46:52;20.87;;;19.87;;
18021;SDS011;9136;48.822;7.966;2023-02-21T03:49:40;21.10;;;20.10;;
18021;SDS011;9136;48.822;7.966;2023-02-21T03:52:29;18.43;;;17.63;;
18021;SDS011;9136;48.822;7.966;2023-02-21T03:55:17;22.30;;;21.30;;
18021;SDS011;9136;48.822;7.966;2023-02-21T03:58:05;21.17;;;20.17;;
18021;SDS011;9136;48.822;7.966;2023-02-21T04:00:54;20.80;;;19.80;;
18021;SDS011;9136;48.822;7.966;2023-02-21T04:03:42;19.17;;;18.27;;
18021;SDS011;9136;48.822;7.966;2023-02-21T04:06:31;19.87;;;18.97;;
18021;SDS011;9136;48.822;7.966;2023-02-21T04:09:18;19.57;;;18.67;;
18021;SDS011;9136;48.822;7.966;2023-02-21T04:12:06;23.70;;;22.40;;
18021;SDS011;9136;48.822;7.966;2023-02-21T04:14:55;25.23;;;24.03;;
18021;SDS011;9136;48.822;7.966;2023-02-21T04:17:45;21.33;;;20.23;;
18021;SDS011;9136;48.822;7.966;2023-02-21T04:20:33;19.20;;;18.23;;
18021;SDS011;9136;48.822;7.966;2023-02-21T04:23:21;21.63;;;20.63;;
18021;SDS011;9136;48.822;7.966;2023-02-21T04:26:10;22.50;;;21.33;;
18021;SDS011;9136;48.822;7.966;2023-02-21T04:28:58;20.97;;;19.97;;
18021;SDS011;9136;48.822;7.966;2023-02-21T04:31:45;21.23;;;20.23;;
18021;SDS011;9136;48.822;7.966;2023-02-21T04:34:36;20.27;;;19.23;;
18021;SDS011;9136;48.822;7.966;2023-02-21T04:37:24;18.97;;;18.10;;
18021;SDS011;9136;48.822;7.966;2023-02-21T04:40:12;21.57;;;20.57;;
18021;SDS011;9136;48.822;7.966;2023-02-21T04:43:00;21.43;;;20.43;;
18021;SDS011;9136;48.822;7.966;2023-02-21T04:45:48;21.73;;;20.50;;
18021;SDS011;9136;48.822;7.966;2023-02-21T04:48:36;21.93;;;20.93;;
18021;SDS011;9136;48.822;7.966;2023-02-21T04:51:26;24.00;;;22.90;;
18021;SDS011;9136;48.822;7.966;2023-02-21T04:54:14;21.77;;;20.70;;
18021;SDS011;9136;48.822;7.966;2023-02-21T04:57:02;24.27;;;22.70;;
18021;SDS011;9136;48.822;7.966;2023-02-21T04:59:54;21.67;;;20.67;;
18021;SDS011;9136;48.822;7.966;2023-02-21T05:02:43;25.80;;;24.47;;
18021;SDS011;9136;48.822;7.966;2023-02-21T05:05:32;21.70;;;20.70;;
18021;SDS011;9136;48.822;7.966;2023-02-21T05:08:21;24.37;;;23.10;;
18021;SDS011;9136;48.822;7.966;2023-02-21T05:11:09;23.50;;;22.40;;
18021;SDS011;9136;48.822;7.966;2023-02-21T05:13:58;24.40;;;23.10;;
18021;SDS011;9136;48.822;7.966;2023-02-21T05:16:46;21.90;;;20.77;;
18021;SDS011;9136;48.822;7.966;2023-02-21T05:19:33;21.33;;;20.37;;
18021;SDS011;9136;48.822;7.966;2023-02-21T05:22:21;23.53;;;22.50;;
18021;SDS011;9136;48.822;7.966;2023-02-21T05:25:14;21.10;;;20.07;;
18021;SDS011;9136;48.822;7.966;2023-02-21T05:28:03;21.00;;;19.93;;
18021;SDS011;9136;48.822;7.966;2023-02-21T05:30:51;23.23;;;22.20;;
18021;SDS011;9136;48.822;7.966;2023-02-21T05:33:39;21.90;;;20.73;;
18021;SDS011;9136;48.822;7.966;2023-02-21T05:36:27;23.00;;;21.90;;
18021;SDS011;9136;48.822;7.966;2023-02-21T05:39:15;26.97;;;25.67;;
18021;SDS011;9136;48.822;7.966;2023-02-21T05:42:04;22.30;;;21.27;;
18021;SDS011;9136;48.822;7.966;2023-02-21T05:44:52;21.30;;;20.27;;
18021;SDS011;9136;48.822;7.966;2023-02-21T05:47:40;23.37;;;22.17;;
18021;SDS011;9136;48.822;7.966;2023-02-21T05:50:28;25.93;;;24.63;;
18021;SDS011;9136;48.822;7.966;2023-02-21T05:53:17;22.63;;;21.53;;
18021;SDS011;9136;48.822;7.966;2023-02-21T05:56:04;21.57;;;20.57;;
18021;SDS011;9136;48.822;7.966;2023-02-21T05:58:55;24.93;;;23.70;;
18021;SDS011;9136;48.822;7.966;2023-02-21T06:01:42;23.77;;;22.67;;
18021;SDS011;9136;48.822;7.966;2023-02-21T06:04:30;25.40;;;24.20;;
18021;SDS011;9136;48.822;7.966;2023-02-21T06:07:18;26.33;;;25.03;;
18021;SDS011;9136;48.822;7.966;2023-02-21T06:10:06;24.53;;;23.40;;
18021;SDS011;9136;48.822;7.966;2023-02-21T06:12:55;22.83;;;21.83;;
18021;SDS011;9136;48.822;7.966;2023-02-21T06:15:44;23.00;;;21.87;;
18021;SDS011;9136;48.822;7.966;2023-02-21T06:18:32;24.00;;;22.90;;
18021;SDS011;9136;48.822;7.966;2023-02-21T06:21:23;22.43;;;21.33;;
18021;SDS011;9136;48.822;7.966;2023-02-21T06:24:11;23.77;;;22.67;;
18021;SDS011;9136;48.822;7.966;2023-02-21T06:26:59;21.60;;;20.20;;
18021;SDS011;9136;48.822;7.966;2023-02-21T06:29:46;24.87;;;23.50;;
18021;SDS011;9136;48.822;7.966;2023-02-21T06:32:36;25.73;;;24.47;;
18021;SDS011;9136;48.822;7.966;2023-02-21T06:35:25;23.33;;;22.13;;
18021;SDS011;9136;48.822;7.966;2023-02-21T06:38:13;23.73;;;22.43;;
18021;SDS011;9136;48.822;7.966;2023-02-21T06:41:04;20.30;;;19.40;;
18021;SDS011;9136;48.822;7.966;2023-02-21T06:43:53;26.77;;;25.37;;
18021;SDS011;9136;48.822;7.966;2023-02-21T06:46:42;27.27;;;25.80;;
18021;SDS011;9136;48.822;7.966;2023-02-21T06:49:35;22.43;;;21.33;;
18021;SDS011;9136;48.822;7.966;2023-02-21T06:52:23;25.67;;;24.37;;
18021;SDS011;9136;48.822;7.966;2023-02-21T06:55:11;23.87;;;22.77;;
18021;SDS011;9136;48.822;7.966;2023-02-21T06:57:59;23.53;;;22.43;;
18021;SDS011;9136;48.822;7.966;2023-02-21T07:00:50;24.30;;;23.10;;
18021;SDS011;9136;48.822;7.966;2023-02-21T07:03:51;25.20;;;23.93;;
18021;SDS011;9136;48.822;7.966;2023-02-21T07:06:40;23.57;;;22.47;;
18021;SDS011;9136;48.822;7.966;2023-02-21T07:09:28;23.63;;;22.43;;
18021;SDS011;9136;48.822;7.966;2023-02-21T07:12:16;21.80;;;20.80;;
18021;SDS011;9136;48.822;7.966;2023-02-21T07:15:04;23.03;;;21.93;;
18021;SDS011;9136;48.822;7.966;2023-02-21T07:17:52;21.47;;;20.50;;
18021;SDS011;9136;48.822;7.966;2023-02-21T07:20:40;27.20;;;25.70;;
18021;SDS011;9136;48.822;7.966;2023-02-21T07:23:30;25.97;;;24.57;;
18021;SDS011;9136;48.822;7.966;2023-02-21T07:26:18;20.60;;;19.70;;
18021;SDS011;9136;48.822;7.966;2023-02-21T07:29:06;20.70;;;19.70;;
18021;SDS011;9136;48.822;7.966;2023-02-21T07:31:54;18.63;;;17.83;;
18021;SDS011;9136;48.822;7.966;2023-02-21T07:34:43;23.90;;;22.80;;
18021;SDS011;9136;48.822;7.966;2023-02-21T07:37:30;22.20;;;21.20;;
18021;SDS011;9136;48.822;7.966;2023-02-21T07:40:20;21.27;;;20.33;;
18021;SDS011;9136;48.822;7.966;2023-02-21T07:43:08;22.80;;;21.80;;
18021;SDS011;9136;48.822;7.966;2023-02-21T07:45:56;23.67;;;22.47;;
18021;SDS011;9136;48.822;7.966;2023-02-21T07:48:45;26.17;;;24.97;;
18021;SDS011;9136;48.822;7.966;2023-02-21T07:51:33;26.47;;;25.27;;
18021;SDS011;9136;48.822;7.966;2023-02-21T07:54:21;25.03;;;23.83;;
18021;SDS011;9136;48.822;7.966;2023-02-21T07:57:10;24.57;;;23.47;;
18021;SDS011;9136;48.822;7.966;2023-02-21T07:59:58;24.20;;;23.10;;
18021;SDS011;9136;48.822;7.966;2023-02-21T08:02:46;24.37;;;23.27;;
18021;SDS011;9136;48.822;7.966;2023-02-21T08:05:34;25.13;;;23.93;;
18021;SDS011;9136;48.822;7.966;2023-02-21T08:08:22;22.67;;;21.57;;
18021;SDS011;9136;48.822;7.966;2023-02-21T08:11:10;21.77;;;20.77;;
18021;SDS011;9136;48.822;7.966;2023-02-21T08:13:59;22.07;;;21.00;;
18021;SDS011;9136;48.822;7.966;2023-02-21T08:16:47;24.07;;;22.60;;
18021;SDS011;9136;48.822;7.966;2023-02-21T08:19:35;19.50;;;18.53;;
18021;SDS011;9136;48.822;7.966;2023-02-21T08:22:23;21.53;;;20.53;;
18021;SDS011;9136;48.822;7.966;2023-02-21T08:25:11;21.90;;;20.90;;
18021;SDS011;9136;48.822;7.966;2023-02-21T08:28:00;22.70;;;20.73;;
18021;SDS011;9136;48.822;7.966;2023-02-21T08:30:49;19.50;;;18.60;;
18021;SDS011;9136;48.822;7.966;2023-02-21T08:33:38;21.77;;;20.77;;
18021;SDS011;9136;48.822;7.966;2023-02-21T08:36:29;20.23;;;19.33;;
18021;SDS011;9136;48.822;7.966;2023-02-21T08:39:17;22.13;;;20.93;;
18021;SDS011;9136;48.822;7.966;2023-02-21T08:42:05;22.40;;;21.40;;
18021;SDS011;9136;48.822;7.966;2023-02-21T08:44:53;20.97;;;19.97;;
18021;SDS011;9136;48.822;7.966;2023-02-21T08:47:43;21.17;;;20.17;;
18021;SDS011;9136;48.822;7.966;2023-02-21T08:50:31;18.63;;;17.83;;
18021;SDS011;9136;48.822;7.966;2023-02-21T08:53:19;20.57;;;19.47;;
18021;SDS011;9136;48.822;7.966;2023-02-21T08:56:07;20.63;;;19.67;;
18021;SDS011;9136;48.822;7.966;2023-02-21T08:58:56;21.70;;;20.70;;
18021;SDS011;9136;48.822;7.966;2023-02-21T09:01:44;20.57;;;19.67;;
18021;SDS011;9136;48.822;7.966;2023-02-21T09:04:34;21.70;;;20.70;;
18021;SDS011;9136;48.822;7.966;2023-02-21T09:07:22;21.53;;;20.53;;
18021;SDS011;9136;48.822;7.966;2023-02-21T09:10:10;22.30;;;20.90;;
18021;SDS011;9136;48.822;7.966;2023-02-21T09:12:58;21.23;;;20.23;;
18021;SDS011;9136;48.822;7.966;2023-02-21T09:15:46;20.80;;;19.90;;
18021;SDS011;9136;48.822;7.966;2023-02-21T09:18:35;26.10;;;22.40;;
18021;SDS011;9136;48.822;7.966;2023-02-21T09:21:25;19.83;;;18.90;;
18021;SDS011;9136;48.822;7.966;2023-02-21T09:24:13;18.97;;;18.07;;
18021;SDS011;9136;48.822;7.966;2023-02-21T09:27:01;20.40;;;19.47;;
18021;SDS011;9136;48.822;7.966;2023-02-21T09:29:49;18.97;;;18.17;;
18021;SDS011;9136;48.822;7.966;2023-02-21T09:32:37;18.17;;;17.37;;
18021;SDS011;9136;48.822;7.966;2023-02-21T09:35:25;18.77;;;17.97;;
18021;SDS011;9136;48.822;7.966;2023-02-21T09:38:17;20.27;;;19.30;;
18021;SDS011;9136;48.822;7.966;2023-02-21T09:41:05;19.93;;;19.03;;
18021;SDS011;9136;48.822;7.966;2023-02-21T09:43:55;18.90;;;18.00;;
18021;SDS011;9136;48.822;7.966;2023-02-21T09:46:43;18.03;;;17.03;;
18021;SDS011;9136;48.822;7.966;2023-02-21T09:49:34;20.57;;;19.57;;
18021;SDS011;9136;48.822;7.966;2023-02-21T09:52:26;22.03;;;20.73;;
18021;SDS011;9136;48.822;7.966;2023-02-21T09:55:22;18.47;;;17.60;;
18021;SDS011;9136;48.822;7.966;2023-02-21T09:58:16;18.27;;;17.27;;
18021;SDS011;9136;48.822;7.966;2023-02-21T10:01:07;18.60;;;17.67;;
18021;SDS011;9136;48.822;7.966;2023-02-21T10:04:07;21.13;;;19.90;;
18021;SDS011;9136;48.822;7.966;2023-02-21T10:07:04;19.20;;;17.93;;
18021;SDS011;9136;48.822;7.966;2023-02-21T10:10:01;15.87;;;15.17;;
18021;SDS011;9136;48.822;7.966;2023-02-21T10:12:57;18.23;;;17.43;;
18021;SDS011;9136;48.822;7.966;2023-02-21T10:15:51;18.77;;;17.97;;
18021;SDS011;9136;48.822;7.966;2023-02-21T10:18:47;20.23;;;19.10;;
18021;SDS011;9136;48.822;7.966;2023-02-21T10:21:45;18.00;;;17.20;;
18021;SDS011;9136;48.822;7.966;2023-02-21T10:24:35;16.83;;;15.97;;
18021;SDS011;9136;48.822;7.966;2023-02-21T10:27:24;16.13;;;15.13;;
18021;SDS011;9136;48.822;7.966;2023-02-21T10:30:19;16.10;;;15.30;;
18021;SDS011;9136;48.822;7.966;2023-02-21T10:33:13;17.70;;;16.90;;
18021;SDS011;9136;48.822;7.966;2023-02-21T10:36:05;19.53;;;17.90;;
18021;SDS011;9136;48.822;7.966;2023-02-21T10:38:58;19.10;;;18.20;;
18021;SDS011;9136;48.822;7.966;2023-02-21T10:41:52;18.93;;;18.03;;
18021;SDS011;9136;48.822;7.966;2023-02-21T10:44:42;17.03;;;16.17;;
18021;SDS011;9136;48.822;7.966;2023-02-21T10:47:37;21.03;;;19.17;;
18021;SDS011;9136;48.822;7.966;2023-02-21T10:50:41;16.30;;;15.50;;
18021;SDS011;9136;48.822;7.966;2023-02-21T10:53:36;17.03;;;16.13;;
18021;SDS011;9136;48.822;7.966;2023-02-21T10:56:26;18.50;;;17.63;;
18021;SDS011;9136;48.822;7.966;2023-02-21T10:59:19;15.30;;;14.37;;
18021;SDS011;9136;48.822;7.966;2023-02-21T11:05:26;16.77;;;15.97;;
18021;SDS011;9136;48.822;7.966;2023-02-21T11:08:15;16.87;;;16.07;;
18021;SDS011;9136;48.822;7.966;2023-02-21T11:11:31;16.13;;;15.33;;
18021;SDS011;9136;48.822;7.966;2023-02-21T11:14:22;15.20;;;14.30;;
18021;SDS011;9136;48.822;7.966;2023-02-21T11:17:13;14.23;;;13.57;;
18021;SDS011;9136;48.822;7.966;2023-02-21T11:20:14;14.40;;;13.70;;
18021;SDS011;9136;48.822;7.966;2023-02-21T11:23:03;13.53;;;12.90;;
18021;SDS011;9136;48.822;7.966;2023-02-21T11:26:05;13.93;;;13.33;;
18021;SDS011;9136;48.822;7.966;2023-02-21T11:28:55;15.30;;;14.23;;
18021;SDS011;9136;48.822;7.966;2023-02-21T11:32:09;13.77;;;13.07;;
18021;SDS011;9136;48.822;7.966;2023-02-21T11:35:00;14.38;;;13.50;;
18021;SDS011;9136;48.822;7.966;2023-02-21T11:37:53;13.75;;;13.10;;
18021;SDS011;9136;48.822;7.966;2023-02-21T11:40:43;12.93;;;12.32;;
18021;SDS011;9136;48.822;7.966;2023-02-21T11:43:33;13.57;;;12.68;;
18021;SDS011;9136;48.822;7.966;2023-02-21T11:46:27;13.63;;;13.02;;
18021;SDS011;9136;48.822;7.966;2023-02-21T11:49:23;13.27;;;12.68;;
18021;SDS011;9136;48.822;7.966;2023-02-21T11:52:20;12.98;;;12.38;;
18021;SDS011;9136;48.822;7.966;2023-02-21T11:55:14;14.30;;;13.50;;
18021;SDS011;9136;48.822;7.966;2023-02-21T11:58:05;13.73;;;13.02;;
18021;SDS011;9136;48.822;7.966;2023-02-21T12:01:05;15.27;;;14.38;;
18021;SDS011;9136;48.822;7.966;2023-02-21T12:04:02;13.40;;;12.80;;
18021;SDS011;9136;48.822;7.966;2023-02-21T12:07:01;14.25;;;13.45;;
18021;SDS011;9136;48.822;7.966;2023-02-21T12:09:59;13.43;;;12.82;;
18021;SDS011;9136;48.822;7.966;2023-02-21T12:12:54;11.13;;;10.57;;
18021;SDS011;9136;48.822;7.966;2023-02-21T12:15:51;11.35;;;10.60;;
18021;SDS011;9136;48.822;7.966;2023-02-21T12:18:50;10.80;;;10.20;;
18021;SDS011;9136;48.822;7.966;2023-02-21T12:21:51;12.35;;;11.73;;
18021;SDS011;9136;48.822;7.966;2023-02-21T12:24:49;12.45;;;11.75;;
18021;SDS011;9136;48.822;7.966;2023-02-21T12:27:49;10.70;;;10.20;;
18021;SDS011;9136;48.822;7.966;2023-02-21T12:30:47;11.82;;;11.18;;
18021;SDS011;9136;48.822;7.966;2023-02-21T12:33:47;11.38;;;10.68;;
18021;SDS011;9136;48.822;7.966;2023-02-21T12:36:52;12.02;;;11.32;;
18021;SDS011;9136;48.822;7.966;2023-02-21T12:39:55;10.30;;;9.80;;
18021;SDS011;9136;48.822;7.966;2023-02-21T12:46:21;11.80;;;11.00;;
18021;SDS011;9136;48.822;7.966;2023-02-21T12:49:15;10.98;;;10.48;;
18021;SDS011;9136;48.822;7.966;2023-02-21T12:52:12;11.60;;;10.90;;
18021;SDS011;9136;48.822;7.966;2023-02-21T12:55:03;11.93;;;11.32;;
18021;SDS011;9136;48.822;7.966;2023-02-21T12:57:55;10.02;;;9.63;;
18021;SDS011;9136;48.822;7.966;2023-02-21T13:00:48;10.73;;;10.23;;
18021;SDS011;9136;48.822;7.966;2023-02-21T13:03:47;10.82;;;10.23;;
18021;SDS011;9136;48.822;7.966;2023-02-21T13:06:42;11.45;;;10.95;;
18021;SDS011;9136;48.822;7.966;2023-02-21T13:09:35;11.25;;;10.75;;
18021;SDS011;9136;48.822;7.966;2023-02-21T13:12:27;11.18;;;10.60;;
18021;SDS011;9136;48.822;7.966;2023-02-21T13:15:21;11.70;;;11.07;;
18021;SDS011;9136;48.822;7.966;2023-02-21T13:18:14;11.30;;;10.80;;
18021;SDS011;9136;48.822;7.966;2023-02-21T13:24:32;11.63;;;11.10;;
18021;SDS011;9136;48.822;7.966;2023-02-21T13:30:47;12.77;;;11.90;;
18021;SDS011;9136;48.822;7.966;2023-02-21T13:33:39;12.00;;;11.40;;
18021;SDS011;9136;48.822;7.966;2023-02-21T13:36:32;12.77;;;12.02;;
18021;SDS011;9136;48.822;7.966;2023-02-21T13:39:28;11.10;;;10.60;;
18021;SDS011;9136;48.822;7.966;2023-02-21T13:42:21;11.85;;;11.25;;
18021;SDS011;9136;48.822;7.966;2023-02-21T13:45:14;11.77;;;11.18;;
18021;SDS011;9136;48.822;7.966;2023-02-21T13:48:17;11.52;;;11.00;;
18021;SDS011;9136;48.822;7.966;2023-02-21T13:51:08;12.85;;;12.25;;
18021;SDS011;9136;48.822;7.966;2023-02-21T13:54:32;13.40;;;12.80;;
18021;SDS011;9136;48.822;7.966;2023-02-21T13:57:30;14.25;;;13.32;;
18021;SDS011;9136;48.822;7.966;2023-02-21T14:03:34;13.23;;;12.55;;
18021;SDS011;9136;48.822;7.966;2023-02-21T14:06:34;13.30;;;12.70;;
18021;SDS011;9136;48.822;7.966;2023-02-21T14:09:24;13.07;;;12.38;;
18021;SDS011;9136;48.822;7.966;2023-02-21T14:12:12;12.93;;;12.23;;
18021;SDS011;9136;48.822;7.966;2023-02-21T14:15:03;14.65;;;13.95;;
18021;SDS011;9136;48.822;7.966;2023-02-21T14:17:53;15.10;;;14.30;;
18021;SDS011;9136;48.822;7.966;2023-02-21T14:20:40;12.68;;;11.98;;
18021;SDS011;9136;48.822;7.966;2023-02-21T14:23:35;13.48;;;12.77;;
18021;SDS011;9136;48.822;7.966;2023-02-21T14:26:40;13.48;;;12.68;;
18021;SDS011;9136;48.822;7.966;2023-02-21T14:29:32;13.45;;;12.85;;
18021;SDS011;9136;48.822;7.966;2023-02-21T14:32:22;13.52;;;12.93;;
18021;SDS011;9136;48.822;7.966;2023-02-21T14:35:24;12.77;;;12.18;;
18021;SDS011;9136;48.822;7.966;2023-02-21T14:38:20;13.93;;;13.30;;
18021;SDS011;9136;48.822;7.966;2023-02-21T14:41:15;12.95;;;12.35;;
18021;SDS011;9136;48.822;7.966;2023-02-21T14:44:22;13.32;;;12.73;;
18021;SDS011;9136;48.822;7.966;2023-02-21T14:50:48;15.00;;;14.32;;
18021;SDS011;9136;48.822;7.966;2023-02-21T14:53:54;13.77;;;13.18;;
18021;SDS011;9136;48.822;7.966;2023-02-21T14:57:13;15.05;;;13.93;;
18021;SDS011;9136;48.822;7.966;2023-02-21T15:00:24;13.77;;;13.18;;
18021;SDS011;9136;48.822;7.966;2023-02-21T15:03:20;12.43;;;11.80;;
18021;SDS011;9136;48.822;7.966;2023-02-21T15:06:10;12.60;;;12.10;;
18021;SDS011;9136;48.822;7.966;2023-02-21T15:09:10;12.90;;;12.32;;
18021;SDS011;9136;48.822;7.966;2023-02-21T15:12:00;14.18;;;13.48;;
18021;SDS011;9136;48.822;7.966;2023-02-21T15:14:52;14.18;;;13.55;;
18021;SDS011;9136;48.822;7.966;2023-02-21T15:17:42;14.63;;;13.93;;
18021;SDS011;9136;48.822;7.966;2023-02-21T15:20:41;13.20;;;12.60;;
18021;SDS011;9136;48.822;7.966;2023-02-21T15:23:29;12.63;;;12.13;;
18021;SDS011;9136;48.822;7.966;2023-02-21T15:26:18;12.53;;;12.03;;
18021;SDS011;9136;48.822;7.966;2023-02-21T15:29:08;14.00;;;13.40;;
18021;SDS011;9136;48.822;7.966;2023-02-21T15:31:57;13.68;;;13.07;;
18021;SDS011;9136;48.822;7.966;2023-02-21T15:34:48;14.50;;;13.90;;
18021;SDS011;9136;48.822;7.966;2023-02-21T15:37:40;13.20;;;12.55;;
18021;SDS011;9136;48.822;7.966;2023-02-21T15:40:31;13.85;;;13.25;;
18021;SDS011;9136;48.822;7.966;2023-02-21T15:43:22;14.10;;;13.50;;
18021;SDS011;9136;48.822;7.966;2023-02-21T15:46:17;14.57;;;13.87;;
18021;SDS011;9136;48.822;7.966;2023-02-21T15:49:10;13.18;;;12.57;;
18021;SDS011;9136;48.822;7.966;2023-02-21T15:52:05;13.03;;;12.43;;
18021;SDS011;9136;48.822;7.966;2023-02-21T15:58:14;12.47;;;11.97;;
18021;SDS011;9136;48.822;7.966;2023-02-21T16:01:04;12.00;;;11.50;;
18021;SDS011;9136;48.822;7.966;2023-02-21T16:03:57;14.47;;;13.87;;
18021;SDS011;9136;48.822;7.966;2023-02-21T16:07:00;12.73;;;12.23;;
18021;SDS011;9136;48.822;7.966;2023-02-21T16:09:56;14.13;;;13.50;;
18021;SDS011;9136;48.822;7.966;2023-02-21T16:12:50;13.70;;;13.10;;
18021;SDS011;9136;48.822;7.966;2023-02-21T16:15:42;13.20;;;12.60;;
18021;SDS011;9136;48.822;7.966;2023-02-21T16:18:30;13.57;;;12.97;;
18021;SDS011;9136;48.822;7.966;2023-02-21T16:21:20;14.57;;;13.73;;
18021;SDS011;9136;48.822;7.966;2023-02-21T16:24:14;13.83;;;13.23;;
18021;SDS011;9136;48.822;7.966;2023-02-21T16:27:25;13.60;;;12.97;;
18021;SDS011;9136;48.822;7.966;2023-02-21T16:33:03;13.43;;;12.83;;
18021;SDS011;9136;48.822;7.966;2023-02-21T16:35:52;14.27;;;13.67;;
18021;SDS011;9136;48.822;7.966;2023-02-21T16:38:40;12.80;;;12.20;;
18021;SDS011;9136;48.822;7.966;2023-02-21T16:41:28;14.47;;;13.77;;
18021;SDS011;9136;48.822;7.966;2023-02-21T16:44:18;12.53;;;12.03;;
18021;SDS011;9136;48.822;7.966;2023-02-21T16:47:06;14.50;;;13.90;;
18021;SDS011;9136;48.822;7.966;2023-02-21T16:49:53;14.27;;;13.63;;
18021;SDS011;9136;48.822;7.966;2023-02-21T16:52:41;20.67;;;19.67;;
18021;SDS011;9136;48.822;7.966;2023-02-21T16:55:29;13.67;;;13.07;;
18021;SDS011;9136;48.822;7.966;2023-02-21T16:58:19;13.10;;;12.50;;
18021;SDS011;9136;48.822;7.966;2023-02-21T17:01:13;15.80;;;15.10;;
18021;SDS011;9136;48.822;7.966;2023-02-21T17:04:03;13.77;;;13.10;;
18021;SDS011;9136;48.822;7.966;2023-02-21T17:06:53;15.10;;;14.30;;
18021;SDS011;9136;48.822;7.966;2023-02-21T17:09:42;15.87;;;15.13;;
18021;SDS011;9136;48.822;7.966;2023-02-21T17:12:31;14.03;;;13.43;;
18021;SDS011;9136;48.822;7.966;2023-02-21T17:15:23;14.30;;;13.57;;
18021;SDS011;9136;48.822;7.966;2023-02-21T17:18:14;14.30;;;13.70;;
18021;SDS011;9136;48.822;7.966;2023-02-21T17:21:02;13.23;;;12.63;;
18021;SDS011;9136;48.822;7.966;2023-02-21T17:23:50;14.63;;;14.03;;
18021;SDS011;9136;48.822;7.966;2023-02-21T17:26:39;13.97;;;13.37;;
18021;SDS011;9136;48.822;7.966;2023-02-21T17:29:29;13.23;;;12.63;;
18021;SDS011;9136;48.822;7.966;2023-02-21T17:32:17;14.63;;;14.03;;
18021;SDS011;9136;48.822;7.966;2023-02-21T17:35:07;15.43;;;14.73;;
18021;SDS011;9136;48.822;7.966;2023-02-21T17:37:56;14.60;;;13.87;;
18021;SDS011;9136;48.822;7.966;2023-02-21T17:40:46;13.97;;;13.37;;
18021;SDS011;9136;48.822;7.966;2023-02-21T17:43:34;15.30;;;14.50;;